sensor_id;sensor_type;location;lat;lon;timestamp;temperature;humidity
12460;DHT22;6295;49.452;8.466;2023-03-23T06:18:47;13.10;99.90
12460;DHT22;6295;49.452;8.466;2023-03-23T06:22:50;13.10;99.90
12460;DHT22;6295;49.452;8.466;2023-03-23T06:26:54;13.10;99.90
12460;DHT22;6295;49.452;8.466;2023-03-23T06:39:10;13.20;99.90
12460;DHT22;6295;49.452;8.466;2023-03-23T06:43:13;13.20;99.90
12460;DHT22;6295;49.452;8.466;2023-03-23T06:47:17;13.20;99.90
12460;DHT22;6295;49.452;8.466;2023-03-23T06:51:19;13.20;99.90
12460;DHT22;6295;49.452;8.466;2023-03-23T06:55:21;13.20;99.90
12460;DHT22;6295;49.452;8.466;2023-03-23T06:59:23;13.30;99.90
12460;DHT22;6295;49.452;8.466;2023-03-23T07:03:27;13.30;99.90
12460;DHT22;6295;49.452;8.466;2023-03-23T07:19:40;13.40;99.90
12460;DHT22;6295;49.452;8.466;2023-03-23T07:23:42;13.40;99.90
12460;DHT22;6295;49.452;8.466;2023-03-23T07:27:47;13.40;99.90
12460;DHT22;6295;49.452;8.466;2023-03-23T07:31:49;13.50;99.90
12460;DHT22;6295;49.452;8.466;2023-03-23T07:35:53;13.50;99.90
12460;DHT22;6295;49.452;8.466;2023-03-23T07:39:56;13.50;99.90
12460;DHT22;6295;49.452;8.466;2023-03-23T07:43:58;13.50;99.90
12460;DHT22;6295;49.452;8.466;2023-03-23T07:48:02;13.50;99.90
12460;DHT22;6295;49.452;8.466;2023-03-23T07:52:07;13.50;99.90
12460;DHT22;6295;49.452;8.466;2023-03-23T08:00:15;13.50;99.90
12460;DHT22;6295;49.452;8.466;2023-03-23T08:04:19;13.50;99.90
12460;DHT22;6295;49.452;8.466;2023-03-23T08:08:22;13.50;99.90
12460;DHT22;6295;49.452;8.466;2023-03-23T08:12:25;13.50;99.90
12460;DHT22;6295;49.452;8.466;2023-03-23T08:20:34;13.40;99.90
12460;DHT22;6295;49.452;8.466;2023-03-23T08:24:38;13.50;99.90
12460;DHT22;6295;49.452;8.466;2023-03-23T08:36:47;13.50;99.90
12460;DHT22;6295;49.452;8.466;2023-03-23T08:40:50;13.40;99.90
12460;DHT22;6295;49.452;8.466;2023-03-23T08:44:53;13.50;99.90
12460;DHT22;6295;49.452;8.466;2023-03-23T08:48:55;13.50;99.90
12460;DHT22;6295;49.452;8.466;2023-03-23T08:57:01;13.40;99.90
12460;DHT22;6295;49.452;8.466;2023-03-23T09:01:07;13.40;99.90
12460;DHT22;6295;49.452;8.466;2023-03-23T09:05:11;13.40;99.90
12460;DHT22;6295;49.452;8.466;2023-03-23T09:09:14;13.50;99.90
12460;DHT22;6295;49.452;8.466;2023-03-23T09:13:17;13.50;99.90
12460;DHT22;6295;49.452;8.466;2023-03-23T09:21:22;13.70;99.90
12460;DHT22;6295;49.452;8.466;2023-03-23T09:25:26;13.80;99.90
12460;DHT22;6295;49.452;8.466;2023-03-23T09:33:38;13.90;99.90
12460;DHT22;6295;49.452;8.466;2023-03-23T09:46:06;14.10;99.90
12460;DHT22;6295;49.452;8.466;2023-03-23T09:50:12;14.00;99.90
12460;DHT22;6295;49.452;8.466;2023-03-23T09:54:21;14.10;99.90
12460;DHT22;6295;49.452;8.466;2023-03-23T09:58:28;14.10;99.90
12460;DHT22;6295;49.452;8.466;2023-03-23T10:02:38;14.10;99.90
12460;DHT22;6295;49.452;8.466;2023-03-23T10:06:43;14.20;99.90
12460;DHT22;6295;49.452;8.466;2023-03-23T10:10:56;14.20;99.90
12460;DHT22;6295;49.452;8.466;2023-03-23T10:15:09;14.10;99.90
12460;DHT22;6295;49.452;8.466;2023-03-23T10:19:20;14.10;99.90
12460;DHT22;6295;49.452;8.466;2023-03-23T10:23:43;14.10;99.90
12460;DHT22;6295;49.452;8.466;2023-03-23T10:27:52;14.10;99.90
12460;DHT22;6295;49.452;8.466;2023-03-23T10:31:59;14.20;99.90
12460;DHT22;6295;49.452;8.466;2023-03-23T10:36:07;14.30;99.90
12460;DHT22;6295;49.452;8.466;2023-03-23T10:44:19;14.40;99.90
12460;DHT22;6295;49.452;8.466;2023-03-23T10:48:30;14.50;99.90
12460;DHT22;6295;49.452;8.466;2023-03-23T10:56:46;14.80;99.90
12460;DHT22;6295;49.452;8.466;2023-03-23T11:00:51;14.80;99.90
12460;DHT22;6295;49.452;8.466;2023-03-23T11:13:15;14.70;99.90
12460;DHT22;6295;49.452;8.466;2023-03-23T11:17:22;14.70;99.90
12460;DHT22;6295;49.452;8.466;2023-03-23T11:21:28;14.70;99.90
12460;DHT22;6295;49.452;8.466;2023-03-23T11:25:32;14.60;99.90
12460;DHT22;6295;49.452;8.466;2023-03-23T11:33:50;14.60;99.90
12460;DHT22;6295;49.452;8.466;2023-03-23T11:37:54;14.60;99.90
12460;DHT22;6295;49.452;8.466;2023-03-23T11:41:59;14.60;99.90
12460;DHT22;6295;49.452;8.466;2023-03-23T11:46:05;14.70;99.90
12460;DHT22;6295;49.452;8.466;2023-03-23T11:50:16;14.70;99.90
12460;DHT22;6295;49.452;8.466;2023-03-23T11:58:28;14.70;99.90
12460;DHT22;6295;49.452;8.466;2023-03-23T12:04:03;14.70;99.90
12460;DHT22;6295;49.452;8.466;2023-03-23T12:07:18;14.70;99.90
12460;DHT22;6295;49.452;8.466;2023-03-23T12:15:34;14.70;99.90
12460;DHT22;6295;49.452;8.466;2023-03-23T12:19:45;14.80;99.90
12460;DHT22;6295;49.452;8.466;2023-03-23T12:27:59;14.80;99.90
12460;DHT22;6295;49.452;8.466;2023-03-23T12:32:23;14.80;99.90
12460;DHT22;6295;49.452;8.466;2023-03-23T12:36:41;14.80;99.90
12460;DHT22;6295;49.452;8.466;2023-03-23T12:41:10;14.80;99.90
12460;DHT22;6295;49.452;8.466;2023-03-23T12:45:21;14.80;99.90
12460;DHT22;6295;49.452;8.466;2023-03-23T12:53:36;14.90;99.90
12460;DHT22;6295;49.452;8.466;2023-03-23T12:57:45;14.90;99.90
12460;DHT22;6295;49.452;8.466;2023-03-23T13:01:56;14.90;99.90
12460;DHT22;6295;49.452;8.466;2023-03-23T13:06:05;14.90;99.90
12460;DHT22;6295;49.452;8.466;2023-03-23T13:14:29;14.90;99.90
12460;DHT22;6295;49.452;8.466;2023-03-23T13:18:40;15.00;99.90
12460;DHT22;6295;49.452;8.466;2023-03-23T13:22:48;14.90;99.90
12460;DHT22;6295;49.452;8.466;2023-03-23T13:26:53;14.90;99.90
12460;DHT22;6295;49.452;8.466;2023-03-23T13:31:02;14.90;99.90
12460;DHT22;6295;49.452;8.466;2023-03-23T13:39:20;14.80;99.90
12460;DHT22;6295;49.452;8.466;2023-03-23T13:43:27;14.70;99.90
12460;DHT22;6295;49.452;8.466;2023-03-23T13:47:37;14.80;99.90
12460;DHT22;6295;49.452;8.466;2023-03-23T13:51:52;14.70;99.90
12460;DHT22;6295;49.452;8.466;2023-03-23T13:56:16;14.70;99.90
12460;DHT22;6295;49.452;8.466;2023-03-23T14:00:35;14.70;99.90
12460;DHT22;6295;49.452;8.466;2023-03-23T14:08:43;14.60;99.90
12460;DHT22;6295;49.452;8.466;2023-03-23T14:12:50;14.60;99.90
12460;DHT22;6295;49.452;8.466;2023-03-23T14:17:05;14.70;99.90
12460;DHT22;6295;49.452;8.466;2023-03-23T14:21:14;14.70;99.90
12460;DHT22;6295;49.452;8.466;2023-03-23T14:25:18;14.70;99.90
12460;DHT22;6295;49.452;8.466;2023-03-23T14:29:23;14.70;99.90
12460;DHT22;6295;49.452;8.466;2023-03-23T14:33:25;14.70;99.90
12460;DHT22;6295;49.452;8.466;2023-03-23T14:37:28;14.70;99.90
12460;DHT22;6295;49.452;8.466;2023-03-23T14:41:31;14.70;99.90
12460;DHT22;6295;49.452;8.466;2023-03-23T14:49:41;14.70;99.90
12460;DHT22;6295;49.452;8.466;2023-03-23T14:53:43;14.70;99.90
12460;DHT22;6295;49.452;8.466;2023-03-23T15:01:52;14.70;99.90
12460;DHT22;6295;49.452;8.466;2023-03-23T15:10:00;14.70;99.90
12460;DHT22;6295;49.452;8.466;2023-03-23T15:14:14;14.60;99.90
12460;DHT22;6295;49.452;8.466;2023-03-23T15:22:32;14.60;99.90
12460;DHT22;6295;49.452;8.466;2023-03-23T15:26:42;14.70;99.90
12460;DHT22;6295;49.452;8.466;2023-03-23T15:30:53;14.60;99.90
12460;DHT22;6295;49.452;8.466;2023-03-23T15:39:06;14.60;99.90
12460;DHT22;6295;49.452;8.466;2023-03-23T15:43:18;14.70;99.90
12460;DHT22;6295;49.452;8.466;2023-03-23T15:51:43;14.80;99.90
12460;DHT22;6295;49.452;8.466;2023-03-23T15:59:55;14.80;99.90
12460;DHT22;6295;49.452;8.466;2023-03-23T16:04:03;14.80;99.90
12460;DHT22;6295;49.452;8.466;2023-03-23T16:08:10;14.90;99.90
12460;DHT22;6295;49.452;8.466;2023-03-23T16:12:14;14.80;99.90
12460;DHT22;6295;49.452;8.466;2023-03-23T16:16:22;14.80;99.90
12460;DHT22;6295;49.452;8.466;2023-03-23T16:20:29;14.80;99.90
12460;DHT22;6295;49.452;8.466;2023-03-23T16:24:37;14.80;99.90
12460;DHT22;6295;49.452;8.466;2023-03-23T16:28:45;14.70;99.90
